createdAt,value
2023-02-12T00:00:21.283Z,10.50
2023-02-12T00:02:38.044Z,10.48
2023-02-12T00:04:54.724Z,10.07
2023-02-12T00:07:11.422Z,9.52
2023-02-12T00:09:27.915Z,9.15
2023-02-12T00:11:44.320Z,9.90
2023-02-12T00:14:02.853Z,9.55
2023-02-12T00:16:19.565Z,9.30
2023-02-12T00:18:35.944Z,9.35
2023-02-12T00:20:52.351Z,10.27
2023-02-12T00:23:08.808Z,9.20
2023-02-12T00:25:25.295Z,9.35
2023-02-12T00:27:41.628Z,10.45
2023-02-12T00:29:58.367Z,10.18
2023-02-12T00:32:15.179Z,10.50
2023-02-12T00:34:31.874Z,10.85
2023-02-12T00:36:48.558Z,10.07
2023-02-12T00:39:05.029Z,10.55
2023-02-12T00:41:21.463Z,10.68
2023-02-12T00:43:38.081Z,9.80
2023-02-12T00:45:55.058Z,10.25
2023-02-12T00:48:11.790Z,10.93
2023-02-12T00:50:30.762Z,10.75
2023-02-12T00:52:48.446Z,11.10
2023-02-12T00:55:05.130Z,10.80
2023-02-12T00:57:21.493Z,10.93
2023-02-12T00:59:37.916Z,11.18
2023-02-12T01:01:54.453Z,12.57
2023-02-12T01:04:10.906Z,13.23
2023-02-12T01:06:27.377Z,13.68
2023-02-12T01:08:44.151Z,11.88
2023-02-12T01:11:00.853Z,12.48
2023-02-12T01:13:17.496Z,11.13
2023-02-12T01:15:34.108Z,11.13
2023-02-12T01:17:50.751Z,10.52
2023-02-12T01:20:07.249Z,11.27
2023-02-12T01:22:23.570Z,11.30
2023-02-12T01:24:39.974Z,11.43
2023-02-12T01:26:56.708Z,11.25
2023-02-12T01:29:13.442Z,11.82
2023-02-12T01:31:29.926Z,13.07
2023-02-12T01:33:46.416Z,13.77
2023-02-12T01:36:02.833Z,14.07
2023-02-12T01:38:19.300Z,13.40
2023-02-12T01:40:35.696Z,13.23
2023-02-12T01:42:52.078Z,12.55
2023-02-12T01:45:08.439Z,12.18
2023-02-12T01:47:24.956Z,12.90
2023-02-12T01:49:41.436Z,13.02
2023-02-12T01:51:58.173Z,13.35
2023-02-12T01:54:14.652Z,11.85
2023-02-12T01:56:31.342Z,12.65
2023-02-12T01:58:48.016Z,15.93
2023-02-12T02:01:04.547Z,14.40
2023-02-12T02:03:21.041Z,13.95
2023-02-12T02:05:37.417Z,12.43
2023-02-12T02:07:55.021Z,12.57
2023-02-12T02:10:11.647Z,13.18
2023-02-12T02:12:27.954Z,13.00
2023-02-12T02:14:44.613Z,13.05
2023-02-12T02:17:01.287Z,13.25
2023-02-12T02:19:17.710Z,13.18
2023-02-12T02:21:34.179Z,12.27
2023-02-12T02:23:50.907Z,13.13
2023-02-12T02:26:07.340Z,12.52
2023-02-12T02:28:23.791Z,12.98
2023-02-12T02:30:40.208Z,12.57
2023-02-12T02:32:56.706Z,13.07
2023-02-12T02:35:13.130Z,13.60
2023-02-12T02:37:29.632Z,13.95
2023-02-12T02:39:46.062Z,14.45
2023-02-12T02:42:02.537Z,13.30
2023-02-12T02:44:19.189Z,13.98
2023-02-12T02:46:35.991Z,14.10
2023-02-12T02:48:52.489Z,13.13
2023-02-12T02:51:09.163Z,12.98
2023-02-12T02:53:25.633Z,13.05
2023-02-12T02:55:42.133Z,13.50
2023-02-12T02:57:58.754Z,13.60
2023-02-12T03:00:15.395Z,13.82
2023-02-12T03:02:31.878Z,12.98
2023-02-12T03:04:48.379Z,13.35
2023-02-12T03:07:04.858Z,14.07
2023-02-12T03:09:21.319Z,14.20
2023-02-12T03:11:38.042Z,13.52
2023-02-12T03:13:54.410Z,13.85
2023-02-12T03:16:11.194Z,13.70
2023-02-12T03:18:27.636Z,13.63
2023-02-12T03:20:44.075Z,13.50
2023-02-12T03:23:00.409Z,13.75
2023-02-12T03:25:16.835Z,13.50
2023-02-12T03:27:33.596Z,13.85
2023-02-12T03:29:49.911Z,13.13
2023-02-12T03:32:06.330Z,13.63
2023-02-12T03:34:22.803Z,13.45
2023-02-12T03:36:39.508Z,12.93
2023-02-12T03:38:55.926Z,13.82
2023-02-12T03:41:12.373Z,13.68
2023-02-12T03:43:28.791Z,15.30
2023-02-12T03:45:45.258Z,14.27
2023-02-12T03:48:02.053Z,14.60
2023-02-12T03:50:18.487Z,14.13
2023-02-12T03:52:34.955Z,13.80
2023-02-12T03:54:51.458Z,14.35
2023-02-12T03:57:08.081Z,13.75
2023-02-12T03:59:24.502Z,13.25
2023-02-12T04:01:41.240Z,13.82
2023-02-12T04:03:58.058Z,14.65
2023-02-12T04:06:14.506Z,14.57
2023-02-12T04:08:30.958Z,14.05
2023-02-12T04:10:47.571Z,13.57
2023-02-12T04:13:04.057Z,14.20
2023-02-12T04:15:20.796Z,14.30
2023-02-12T04:17:37.566Z,13.57
2023-02-12T04:19:55.435Z,13.95
2023-02-12T04:22:11.866Z,13.80
2023-02-12T04:24:28.578Z,14.00
2023-02-12T04:26:45.200Z,14.18
2023-02-12T04:29:01.700Z,15.15
2023-02-12T04:31:18.253Z,14.85
2023-02-12T04:33:34.637Z,15.85
2023-02-12T04:35:51.277Z,16.77
2023-02-12T04:38:07.961Z,16.58
2023-02-12T04:40:24.440Z,16.05
2023-02-12T04:42:40.927Z,16.60
2023-02-12T04:44:57.610Z,16.83
2023-02-12T04:47:14.018Z,16.27
2023-02-12T04:49:30.558Z,15.77
2023-02-12T04:51:47.004Z,16.42
2023-02-12T04:54:03.379Z,15.93
2023-02-12T04:56:20.028Z,15.35
2023-02-12T04:58:36.494Z,16.50
2023-02-12T05:00:53.190Z,16.23
2023-02-12T05:03:09.865Z,16.73
2023-02-12T05:05:26.601Z,15.75
2023-02-12T05:07:43.085Z,15.93
2023-02-12T05:09:59.416Z,16.05
2023-02-12T05:12:18.297Z,15.00
2023-02-12T05:14:34.686Z,16.52
2023-02-12T05:16:51.416Z,16.02
2023-02-12T05:19:07.846Z,16.73
2023-02-12T05:21:24.284Z,16.98
2023-02-12T05:23:40.954Z,16.55
2023-02-12T05:25:57.486Z,16.70
2023-02-12T05:28:14.044Z,16.48
2023-02-12T05:30:30.508Z,17.00
2023-02-12T05:32:46.951Z,16.55
2023-02-12T05:35:03.677Z,17.17
2023-02-12T05:37:20.356Z,16.05
2023-02-12T05:39:36.735Z,16.20
2023-02-12T05:41:53.199Z,16.75
2023-02-12T05:44:09.668Z,16.80
2023-02-12T05:46:26.443Z,17.30
2023-02-12T05:48:42.919Z,17.52
2023-02-12T05:50:59.595Z,17.45
2023-02-12T05:53:16.374Z,17.08
2023-02-12T05:55:32.779Z,16.10
2023-02-12T05:57:49.473Z,15.48
2023-02-12T06:00:06.180Z,16.58
2023-02-12T06:02:22.907Z,17.13
2023-02-12T06:04:39.316Z,18.05
2023-02-12T06:06:55.816Z,18.63
2023-02-12T06:09:12.507Z,18.75
2023-02-12T06:11:28.932Z,17.33
2023-02-12T06:13:45.341Z,17.83
2023-02-12T06:16:01.726Z,16.70
2023-02-12T06:18:18.133Z,17.00
2023-02-12T06:20:34.552Z,17.20
2023-02-12T06:22:50.979Z,17.08
2023-02-12T06:25:07.488Z,17.52
2023-02-12T06:27:24.154Z,16.95
2023-02-12T06:29:40.646Z,16.45
2023-02-12T06:31:57.410Z,16.55
2023-02-12T06:34:14.212Z,16.55
2023-02-12T06:36:30.553Z,16.92
2023-02-12T06:38:47.247Z,17.48
2023-02-12T06:41:03.716Z,17.13
2023-02-12T06:43:20.150Z,16.85
2023-02-12T06:45:36.885Z,17.60
2023-02-12T06:47:53.215Z,17.52
2023-02-12T06:50:09.563Z,17.85
2023-02-12T06:52:26.234Z,18.17
2023-02-12T06:54:42.869Z,17.63
2023-02-12T06:56:59.194Z,17.65
2023-02-12T06:59:15.860Z,17.77
2023-02-12T07:01:32.556Z,18.52
2023-02-12T07:03:49.347Z,19.63
2023-02-12T07:06:06.046Z,19.27
2023-02-12T07:08:22.555Z,18.92
2023-02-12T07:10:38.911Z,19.00
2023-02-12T07:12:55.366Z,18.15
2023-02-12T07:15:11.920Z,18.52
2023-02-12T07:17:28.420Z,19.48
2023-02-12T07:19:44.712Z,18.00
2023-02-12T07:22:01.392Z,18.90
2023-02-12T07:24:17.882Z,18.15
2023-02-12T07:26:34.323Z,18.98
2023-02-12T07:28:50.748Z,19.85
2023-02-12T07:31:07.575Z,21.33
2023-02-12T07:33:24.442Z,24.95
2023-02-12T07:35:40.876Z,21.75
2023-02-12T07:37:57.294Z,23.10
2023-02-12T07:40:13.923Z,22.90
2023-02-12T07:42:30.373Z,22.88
2023-02-12T07:44:46.644Z,23.20
2023-02-12T07:47:03.393Z,22.40
2023-02-12T07:49:19.983Z,25.55
2023-02-12T07:51:36.669Z,23.48
2023-02-12T07:53:53.188Z,25.17
2023-02-12T07:56:09.738Z,24.42
2023-02-12T07:58:26.250Z,24.67
2023-02-12T08:00:42.693Z,25.63
2023-02-12T08:02:59.295Z,26.50
2023-02-12T08:05:15.672Z,26.05
2023-02-12T08:07:32.425Z,28.45
2023-02-12T08:09:48.827Z,31.65
2023-02-12T08:12:05.301Z,35.15
2023-02-12T08:14:23.084Z,40.85
2023-02-12T08:16:39.688Z,39.22
2023-02-12T08:19:02.348Z,37.30
2023-02-12T08:21:24.140Z,36.42
2023-02-12T08:23:40.925Z,39.33
2023-02-12T08:25:57.792Z,39.35
2023-02-12T08:28:14.447Z,39.80
2023-02-12T08:30:31.236Z,42.22
2023-02-12T08:32:47.727Z,38.17
2023-02-12T08:35:04.053Z,37.25
2023-02-12T08:37:20.832Z,36.03
2023-02-12T08:39:37.353Z,37.05
2023-02-12T08:41:54.028Z,35.85
2023-02-12T08:44:10.511Z,33.47
2023-02-12T08:46:27.342Z,33.53
2023-02-12T08:48:43.913Z,35.75
2023-02-12T08:51:00.621Z,35.92
2023-02-12T08:53:17.724Z,35.38
2023-02-12T08:55:34.511Z,31.80
2023-02-12T08:57:52.050Z,32.35
2023-02-12T09:00:08.594Z,31.80
2023-02-12T09:02:25.085Z,32.65
2023-02-12T09:04:41.546Z,30.58
2023-02-12T09:06:58.305Z,31.23
2023-02-12T09:09:14.814Z,31.30
2023-02-12T09:11:31.336Z,31.33
2023-02-12T09:13:47.881Z,30.55
2023-02-12T09:16:04.609Z,30.42
2023-02-12T09:18:21.144Z,30.48
2023-02-12T09:20:37.626Z,30.88
2023-02-12T09:22:54.118Z,29.55
2023-02-12T09:25:10.598Z,30.58
2023-02-12T09:27:28.238Z,28.98
2023-02-12T09:29:46.566Z,29.80
2023-02-12T09:32:03.206Z,30.88
2023-02-12T09:34:20.010Z,29.75
2023-02-12T09:36:36.537Z,31.00
2023-02-12T09:38:53.374Z,30.02
2023-02-12T09:41:10.154Z,30.40
2023-02-12T09:43:26.946Z,30.08
2023-02-12T09:45:43.484Z,30.83
2023-02-12T09:47:59.839Z,30.67
2023-02-12T09:50:16.344Z,28.65
2023-02-12T09:52:33.111Z,28.70
2023-02-12T09:54:49.951Z,30.27
2023-02-12T09:57:06.680Z,29.02
2023-02-12T09:59:23.084Z,29.52
2023-02-12T10:01:39.923Z,27.88
2023-02-12T10:03:56.313Z,27.70
2023-02-12T10:06:12.828Z,28.30
2023-02-12T10:08:29.697Z,27.33
2023-02-12T10:10:46.065Z,28.05
2023-02-12T10:13:02.458Z,27.73
2023-02-12T10:15:19.144Z,29.77
2023-02-12T10:17:35.563Z,27.50
2023-02-12T10:19:51.993Z,25.85
2023-02-12T10:22:08.628Z,27.17
2023-02-12T10:24:25.155Z,27.00
2023-02-12T10:26:41.829Z,26.75
2023-02-12T10:28:58.597Z,27.17
2023-02-12T10:31:15.065Z,26.92
2023-02-12T10:33:31.595Z,26.20
2023-02-12T10:35:48.361Z,28.13
2023-02-12T10:38:04.775Z,27.13
2023-02-12T10:40:21.459Z,26.75
2023-02-12T10:42:38.142Z,26.90
2023-02-12T10:44:54.921Z,29.00
2023-02-12T10:47:11.396Z,26.77
2023-02-12T10:49:28.181Z,27.67
2023-02-12T10:51:44.714Z,26.08
2023-02-12T10:54:01.150Z,26.08
2023-02-12T10:56:17.873Z,26.40
2023-02-12T10:58:34.417Z,27.23
2023-02-12T11:00:50.733Z,26.88
2023-02-12T11:03:07.476Z,28.23
2023-02-12T11:05:23.930Z,27.40
2023-02-12T11:07:40.198Z,28.40
2023-02-12T11:09:56.902Z,27.40
2023-02-12T11:12:13.430Z,26.83
2023-02-12T11:14:29.837Z,27.88
2023-02-12T11:16:46.527Z,27.33
2023-02-12T11:19:03.322Z,31.65
2023-02-12T11:21:20.081Z,29.02
2023-02-12T11:23:36.624Z,28.38
2023-02-12T11:25:53.132Z,26.75
2023-02-12T11:28:09.970Z,27.77
2023-02-12T11:30:26.589Z,27.23
2023-02-12T11:32:43.332Z,25.95
2023-02-12T11:35:00.008Z,26.92
2023-02-12T11:37:16.465Z,28.48
2023-02-12T11:39:33.173Z,26.52
2023-02-12T11:41:49.646Z,26.50
2023-02-12T11:44:06.143Z,24.83
2023-02-12T11:46:22.909Z,23.92
2023-02-12T11:48:39.423Z,24.15
2023-02-12T11:50:56.183Z,24.58
2023-02-12T11:53:12.515Z,23.48
2023-02-12T11:55:30.561Z,24.33
2023-02-12T11:57:49.040Z,22.08
2023-02-12T12:00:05.691Z,22.58
2023-02-12T12:02:22.305Z,22.52
2023-02-12T12:04:38.947Z,22.27
2023-02-12T12:06:55.612Z,22.73
2023-02-12T12:09:12.123Z,21.13
2023-02-12T12:11:28.472Z,21.60
2023-02-12T12:13:44.912Z,21.33
2023-02-12T12:16:01.304Z,21.25
2023-02-12T12:18:17.933Z,19.83
2023-02-12T12:20:34.563Z,19.02
2023-02-12T12:22:51.358Z,19.60
2023-02-12T12:25:08.081Z,17.13
2023-02-12T12:27:24.575Z,17.63
2023-02-12T12:29:41.029Z,19.05
2023-02-12T12:31:57.751Z,17.67
2023-02-12T12:34:14.485Z,17.52
2023-02-12T12:36:30.758Z,17.15
2023-02-12T12:38:47.161Z,15.60
2023-02-12T12:41:03.797Z,15.10
2023-02-12T12:43:20.173Z,14.05
2023-02-12T12:45:36.924Z,14.63
2023-02-12T12:47:53.372Z,14.43
2023-02-12T12:50:09.834Z,13.40
2023-02-12T12:52:26.534Z,13.73
2023-02-12T12:54:42.984Z,12.48
2023-02-12T12:56:59.722Z,12.18
2023-02-12T12:59:16.462Z,12.10
2023-02-12T13:01:33.022Z,10.75
2023-02-12T13:03:49.789Z,9.15
2023-02-12T13:06:06.522Z,8.95
2023-02-12T13:08:23.323Z,8.57
2023-02-12T13:10:39.912Z,8.38
2023-02-12T13:12:56.322Z,9.30
2023-02-12T13:15:13.045Z,8.45
2023-02-12T13:17:29.476Z,8.90
2023-02-12T13:19:45.921Z,8.50
2023-02-12T13:22:02.332Z,8.98
2023-02-12T13:24:18.764Z,8.95
2023-02-12T13:26:35.417Z,8.65
2023-02-12T13:28:51.758Z,7.53
2023-02-12T13:31:30.018Z,6.80
2023-02-12T13:33:44.621Z,6.60
2023-02-12T13:36:01.085Z,7.50
2023-02-12T13:38:17.435Z,8.07
2023-02-12T13:40:33.902Z,7.35
2023-02-12T13:42:50.543Z,8.57
2023-02-12T13:45:06.965Z,7.20
2023-02-12T13:47:23.633Z,7.90
2023-02-12T13:49:40.082Z,7.65
2023-02-12T13:51:56.764Z,7.55
2023-02-12T13:54:13.228Z,8.18
2023-02-12T13:56:29.994Z,9.00
2023-02-12T13:58:46.603Z,9.30
2023-02-12T14:01:03.401Z,9.05
2023-02-12T14:03:19.851Z,9.80
2023-02-12T14:05:36.650Z,9.50
2023-02-12T14:07:53.395Z,10.52
2023-02-12T14:10:09.833Z,10.52
2023-02-12T14:12:26.313Z,9.85
2023-02-12T14:14:43.049Z,9.93
2023-02-12T14:16:59.546Z,10.65
2023-02-12T14:19:15.962Z,10.85
2023-02-12T14:21:32.486Z,10.88
2023-02-12T14:23:49.218Z,10.93
2023-02-12T14:26:05.777Z,11.60
2023-02-12T14:28:22.160Z,12.68
2023-02-12T14:30:40.301Z,11.07
2023-02-12T14:32:56.905Z,11.05
2023-02-12T14:35:13.422Z,12.10
2023-02-12T14:37:29.921Z,11.90
2023-02-12T14:39:46.370Z,12.48
2023-02-12T14:42:02.805Z,11.95
2023-02-12T14:44:19.126Z,13.52
2023-02-12T14:46:35.595Z,13.13
2023-02-12T14:48:52.098Z,12.52
2023-02-12T14:51:08.789Z,13.30
2023-02-12T14:53:25.275Z,12.43
2023-02-12T14:55:41.774Z,13.07
2023-02-12T14:57:58.515Z,12.75
2023-02-12T15:00:16.270Z,13.10
2023-02-12T15:02:32.707Z,13.55
2023-02-12T15:04:49.113Z,13.23
2023-02-12T15:07:05.483Z,14.40
2023-02-12T15:09:21.949Z,12.70
2023-02-12T15:11:38.376Z,14.30
2023-02-12T15:13:56.226Z,13.65
2023-02-12T15:16:12.724Z,25.63
2023-02-12T15:18:29.194Z,21.80
2023-02-12T15:20:45.649Z,19.30
2023-02-12T15:23:02.375Z,18.17
2023-02-12T15:25:19.011Z,14.90
2023-02-12T15:27:35.530Z,14.45
2023-02-12T15:29:52.037Z,14.52
2023-02-12T15:32:08.543Z,13.25
2023-02-12T15:34:24.990Z,12.65
2023-02-12T15:36:41.726Z,13.68
2023-02-12T15:38:58.093Z,13.20
2023-02-12T15:41:14.486Z,13.75
2023-02-12T15:43:31.169Z,13.50
2023-02-12T15:45:47.865Z,13.90
2023-02-12T15:48:04.242Z,13.98
2023-02-12T15:50:20.942Z,13.85
2023-02-12T15:52:37.387Z,13.65
2023-02-12T15:54:53.885Z,14.43
2023-02-12T15:57:10.355Z,14.10
2023-02-12T15:59:29.048Z,16.00
2023-02-12T16:01:45.793Z,16.00
2023-02-12T16:04:02.615Z,15.23
2023-02-12T16:06:19.250Z,14.75
2023-02-12T16:08:35.788Z,13.15
2023-02-12T16:10:52.509Z,15.52
2023-02-12T16:13:09.278Z,14.85
2023-02-12T16:15:25.608Z,15.23
2023-02-12T16:17:42.091Z,14.75
2023-02-12T16:19:58.735Z,15.20
2023-02-12T16:22:15.332Z,14.65
2023-02-12T16:24:31.704Z,15.65
2023-02-12T16:26:48.344Z,15.48
2023-02-12T16:29:04.755Z,15.68
2023-02-12T16:31:21.341Z,15.32
2023-02-12T16:33:37.851Z,14.30
2023-02-12T16:35:54.814Z,15.88
2023-02-12T16:38:11.681Z,16.73
2023-02-12T16:40:28.251Z,16.08
2023-02-12T16:42:44.977Z,15.38
2023-02-12T16:45:01.730Z,16.05
2023-02-12T16:47:18.391Z,15.55
2023-02-12T16:49:34.777Z,13.90
2023-02-12T16:51:51.520Z,14.00
2023-02-12T16:54:08.029Z,13.85
2023-02-12T16:56:24.476Z,12.65
2023-02-12T16:58:40.974Z,13.43
2023-02-12T17:00:57.442Z,13.43
2023-02-12T17:03:14.253Z,14.60
2023-02-12T17:05:30.759Z,15.60
2023-02-12T17:07:47.237Z,15.65
2023-02-12T17:10:03.905Z,16.88
2023-02-12T17:12:20.375Z,17.65
2023-02-12T17:14:36.794Z,18.35
2023-02-12T17:16:53.232Z,16.58
2023-02-12T17:19:10.014Z,16.58
2023-02-12T17:21:26.710Z,16.20
2023-02-12T17:23:43.533Z,13.90
2023-02-12T17:26:00.356Z,13.27
2023-02-12T17:28:16.858Z,13.93
2023-02-12T17:30:33.255Z,14.25
2023-02-12T17:32:51.341Z,17.15
2023-02-12T17:35:07.989Z,17.95
2023-02-12T17:37:24.346Z,19.20
2023-02-12T17:39:41.096Z,20.05
2023-02-12T17:41:57.827Z,18.35
2023-02-12T17:44:14.376Z,18.33
2023-02-12T17:46:31.039Z,18.27
2023-02-12T17:48:48.233Z,18.13
2023-02-12T17:51:05.182Z,16.73
2023-02-12T17:53:21.948Z,16.35
2023-02-12T17:55:38.420Z,16.23
2023-02-12T17:57:54.943Z,15.63
2023-02-12T18:00:11.440Z,16.00
2023-02-12T18:02:28.129Z,14.82
2023-02-12T18:04:44.732Z,14.43
2023-02-12T18:07:01.137Z,13.02
2023-02-12T18:09:18.552Z,13.75
2023-02-12T18:11:35.315Z,13.70
2023-02-12T18:13:51.742Z,14.95
2023-02-12T18:16:09.148Z,13.50
2023-02-12T18:18:25.889Z,14.25
2023-02-12T18:20:42.317Z,12.68
2023-02-12T18:22:58.781Z,11.55
2023-02-12T18:25:16.812Z,12.75
2023-02-12T18:27:34.190Z,12.52
2023-02-12T18:29:50.742Z,12.88
2023-02-12T18:32:07.230Z,12.65
2023-02-12T18:34:23.721Z,12.48
2023-02-12T18:36:40.465Z,12.70
2023-02-12T18:38:56.905Z,11.63
2023-02-12T18:41:13.712Z,12.40
2023-02-12T18:43:30.251Z,12.32
2023-02-12T18:45:46.605Z,12.30
2023-02-12T18:48:03.342Z,12.05
2023-02-12T18:50:19.855Z,12.93
2023-02-12T18:52:36.533Z,12.73
2023-02-12T18:54:53.285Z,12.02
2023-02-12T18:57:09.742Z,12.25
2023-02-12T18:59:27.404Z,12.85
2023-02-12T19:01:44.314Z,12.35
2023-02-12T19:04:01.124Z,12.43
2023-02-12T19:06:17.709Z,12.18
2023-02-12T19:08:34.449Z,13.05
2023-02-12T19:10:50.938Z,13.15
2023-02-12T19:13:07.579Z,12.55
2023-02-12T19:15:24.164Z,13.30
2023-02-12T19:17:40.924Z,14.15
2023-02-12T19:19:57.443Z,14.27
2023-02-12T19:22:13.788Z,13.23
2023-02-12T19:24:45.572Z,12.73
2023-02-12T19:27:03.136Z,12.85
2023-02-12T19:29:19.602Z,13.40
2023-02-12T19:31:36.227Z,13.07
2023-02-12T19:33:52.777Z,13.32
2023-02-12T19:36:09.104Z,12.15
2023-02-12T19:38:25.600Z,12.52
2023-02-12T19:40:42.071Z,12.43
2023-02-12T19:42:58.437Z,12.90
2023-02-12T19:45:14.746Z,13.48
2023-02-12T19:47:31.480Z,13.57
2023-02-12T19:49:48.022Z,12.77
2023-02-12T19:52:04.821Z,12.35
2023-02-12T19:54:21.166Z,12.38
2023-02-12T19:56:37.880Z,12.48
2023-02-12T19:58:54.395Z,11.88
2023-02-12T20:01:10.817Z,12.65
2023-02-12T20:03:27.601Z,12.15
2023-02-12T20:05:44.112Z,12.27
2023-02-12T20:08:00.946Z,11.48
2023-02-12T20:10:18.445Z,12.10
2023-02-12T20:12:34.966Z,12.18
2023-02-12T20:14:51.304Z,11.35
2023-02-12T20:17:08.003Z,12.20
2023-02-12T20:19:24.415Z,12.10
2023-02-12T20:21:41.133Z,12.45
2023-02-12T20:23:57.641Z,12.68
2023-02-12T20:26:14.072Z,11.85
2023-02-12T20:28:30.671Z,11.25
2023-02-12T20:30:47.278Z,12.18
2023-02-12T20:33:03.871Z,12.27
2023-02-12T20:35:20.336Z,13.18
2023-02-12T20:37:36.706Z,12.52
2023-02-12T20:39:52.993Z,12.27
2023-02-12T20:42:09.638Z,12.50
2023-02-12T20:44:26.318Z,12.73
2023-02-12T20:46:42.804Z,12.23
2023-02-12T20:48:59.532Z,12.57
2023-02-12T20:51:15.932Z,12.05
2023-02-12T20:53:32.604Z,12.38
2023-02-12T20:55:48.980Z,14.10
2023-02-12T20:58:05.695Z,13.10
2023-02-12T21:00:22.327Z,14.20
2023-02-12T21:02:39.090Z,13.48
2023-02-12T21:04:55.651Z,12.95
2023-02-12T21:07:12.041Z,13.10
2023-02-12T21:09:28.342Z,12.90
2023-02-12T21:11:45.075Z,13.18
2023-02-12T21:14:20.248Z,12.35
2023-02-12T21:16:37.692Z,12.63
2023-02-12T21:18:54.076Z,13.23
2023-02-12T21:21:10.761Z,14.57
2023-02-12T21:23:27.528Z,13.48
2023-02-12T21:25:43.969Z,12.60
2023-02-12T21:28:00.423Z,13.45
2023-02-12T21:30:16.801Z,13.38
2023-02-12T21:32:33.403Z,14.80
2023-02-12T21:34:49.965Z,15.05
2023-02-12T21:37:06.697Z,15.60
2023-02-12T21:39:23.182Z,16.30
2023-02-12T21:41:39.995Z,18.70
2023-02-12T21:43:56.459Z,19.45
2023-02-12T21:46:13.045Z,18.67
2023-02-12T21:48:29.457Z,20.45
2023-02-12T21:50:46.005Z,20.02
2023-02-12T21:53:02.674Z,20.80
2023-02-12T21:55:19.311Z,20.67
2023-02-12T21:57:36.023Z,19.75
2023-02-12T21:59:52.488Z,19.77
2023-02-12T22:02:09.180Z,20.30
2023-02-12T22:04:25.718Z,20.83
2023-02-12T22:06:42.450Z,20.25
2023-02-12T22:08:58.941Z,20.00
2023-02-12T22:11:15.686Z,20.60
2023-02-12T22:13:32.428Z,20.10
2023-02-12T22:15:49.031Z,20.85
2023-02-12T22:18:05.517Z,20.85
2023-02-12T22:20:21.983Z,20.05
2023-02-12T22:22:38.771Z,20.98
2023-02-12T22:24:55.495Z,20.90
2023-02-12T22:27:12.000Z,21.63
2023-02-12T22:29:28.917Z,20.15
2023-02-12T22:31:45.503Z,21.35
2023-02-12T22:34:01.997Z,20.10
2023-02-12T22:36:18.768Z,20.63
2023-02-12T22:38:35.510Z,21.20
2023-02-12T22:40:52.408Z,20.23
2023-02-12T22:43:08.810Z,21.05
2023-02-12T22:45:25.169Z,20.00
2023-02-12T22:47:41.887Z,20.33
2023-02-12T22:49:58.358Z,20.80
2023-02-12T22:52:15.024Z,20.67
2023-02-12T22:54:31.529Z,20.08
2023-02-12T22:56:48.160Z,22.20
2023-02-12T22:59:04.596Z,21.60
2023-02-12T23:01:21.057Z,20.50
2023-02-12T23:03:37.679Z,20.65
2023-02-12T23:05:54.324Z,20.42
2023-02-12T23:08:10.783Z,20.60
2023-02-12T23:10:27.488Z,19.88
2023-02-12T23:12:43.933Z,20.35
2023-02-12T23:15:00.378Z,19.25
2023-02-12T23:17:16.723Z,19.70
2023-02-12T23:19:33.161Z,19.30
2023-02-12T23:21:49.718Z,18.48
2023-02-12T23:24:06.188Z,19.20
2023-02-12T23:26:22.678Z,20.80
2023-02-12T23:28:39.112Z,20.50
2023-02-12T23:30:57.051Z,21.35
2023-02-12T23:33:13.978Z,21.77
2023-02-12T23:35:30.404Z,20.67
2023-02-12T23:37:46.807Z,20.33
2023-02-12T23:40:03.551Z,20.73
2023-02-12T23:42:20.277Z,19.60
2023-02-12T23:44:36.730Z,20.83
2023-02-12T23:46:53.136Z,21.25
2023-02-12T23:49:09.496Z,20.00
2023-02-12T23:51:25.838Z,20.55
2023-02-12T23:53:42.235Z,20.23
2023-02-12T23:55:58.677Z,19.17
2023-02-12T23:58:15.375Z,19.58
